sensor_id;sensor_type;location;lat;lon;timestamp;pressure;altitude;pressure_sealevel;temperature;humidity
77877;BME280;67251;50.844;7.978;2023-04-25T00:00:28;98151.94;;;0.41;96.18
77877;BME280;67251;50.844;7.978;2023-04-25T00:02:53;98143.84;;;0.34;96.09
77877;BME280;67251;50.844;7.978;2023-04-25T00:05:20;98158.03;;;0.41;96.50
77877;BME280;67251;50.844;7.978;2023-04-25T00:07:48;98156.00;;;0.53;96.69
77877;BME280;67251;50.844;7.978;2023-04-25T00:10:15;98152.56;;;0.61;97.09
77877;BME280;67251;50.844;7.978;2023-04-25T00:12:41;98153.03;;;0.56;96.90
77877;BME280;67251;50.844;7.978;2023-04-25T00:15:06;98158.75;;;0.51;96.95
77877;BME280;67251;50.844;7.978;2023-04-25T00:17:32;98156.75;;;0.45;96.86
77877;BME280;67251;50.844;7.978;2023-04-25T00:19:57;98154.28;;;0.44;96.99
77877;BME280;67251;50.844;7.978;2023-04-25T00:22:23;98157.28;;;0.49;97.01
77877;BME280;67251;50.844;7.978;2023-04-25T00:24:48;98156.75;;;0.45;96.99
77877;BME280;67251;50.844;7.978;2023-04-25T00:27:14;98158.66;;;0.35;96.93
77877;BME280;67251;50.844;7.978;2023-04-25T00:29:40;98163.63;;;0.38;97.10
77877;BME280;67251;50.844;7.978;2023-04-25T00:32:05;98161.50;;;0.42;97.11
77877;BME280;67251;50.844;7.978;2023-04-25T00:34:30;98158.56;;;0.45;97.36
77877;BME280;67251;50.844;7.978;2023-04-25T00:36:56;98160.22;;;0.46;97.26
77877;BME280;67251;50.844;7.978;2023-04-25T00:39:22;98161.50;;;0.42;97.58
77877;BME280;67251;50.844;7.978;2023-04-25T00:41:47;98159.22;;;0.47;97.63
77877;BME280;67251;50.844;7.978;2023-04-25T00:44:15;98158.50;;;0.37;97.68
77877;BME280;67251;50.844;7.978;2023-04-25T00:46:42;98158.97;;;0.32;97.84
77877;BME280;67251;50.844;7.978;2023-04-25T00:49:07;98157.78;;;0.27;97.48
77877;BME280;67251;50.844;7.978;2023-04-25T00:51:33;98159.75;;;0.24;97.67
77877;BME280;67251;50.844;7.978;2023-04-25T00:53:59;98158.41;;;0.46;98.03
77877;BME280;67251;50.844;7.978;2023-04-25T00:56:25;98160.66;;;0.41;98.21
77877;BME280;67251;50.844;7.978;2023-04-25T00:58:53;98157.59;;;0.28;97.97
77877;BME280;67251;50.844;7.978;2023-04-25T01:01:21;98168.53;;;0.15;98.02
77877;BME280;67251;50.844;7.978;2023-04-25T01:03:48;98163.03;;;0.09;98.04
77877;BME280;67251;50.844;7.978;2023-04-25T01:06:16;98154.94;;;0.20;98.09
77877;BME280;67251;50.844;7.978;2023-04-25T01:08:41;98156.56;;;0.21;98.07
77877;BME280;67251;50.844;7.978;2023-04-25T01:11:06;98164.19;;;0.24;98.24
77877;BME280;67251;50.844;7.978;2023-04-25T01:13:32;98167.25;;;0.19;98.24
77877;BME280;67251;50.844;7.978;2023-04-25T01:15:59;98172.28;;;0.13;98.51
77877;BME280;67251;50.844;7.978;2023-04-25T01:18:24;98167.44;;;0.00;98.25
77877;BME280;67251;50.844;7.978;2023-04-25T01:20:53;98167.34;;;-0.08;98.25
77877;BME280;67251;50.844;7.978;2023-04-25T01:23:23;98166.53;;;-0.09;98.12
77877;BME280;67251;50.844;7.978;2023-04-25T01:25:48;98157.34;;;-0.22;98.15
77877;BME280;67251;50.844;7.978;2023-04-25T01:28:14;98158.91;;;-0.30;98.35
77877;BME280;67251;50.844;7.978;2023-04-25T01:30:40;98164.47;;;-0.15;98.35
77877;BME280;67251;50.844;7.978;2023-04-25T01:33:07;98164.28;;;-0.04;98.64
77877;BME280;67251;50.844;7.978;2023-04-25T01:35:33;98161.47;;;-0.02;98.50
77877;BME280;67251;50.844;7.978;2023-04-25T01:38:00;98165.84;;;-0.11;98.66
77877;BME280;67251;50.844;7.978;2023-04-25T01:40:26;98172.91;;;-0.11;98.72
77877;BME280;67251;50.844;7.978;2023-04-25T01:42:52;98177.88;;;-0.08;98.71
77877;BME280;67251;50.844;7.978;2023-04-25T01:45:17;98176.06;;;-0.08;98.67
77877;BME280;67251;50.844;7.978;2023-04-25T01:47:44;98184.94;;;-0.09;98.85
77877;BME280;67251;50.844;7.978;2023-04-25T01:53:48;98191.31;;;0.07;99.23
77877;BME280;67251;50.844;7.978;2023-04-25T01:56:14;98184.03;;;0.01;99.09
77877;BME280;67251;50.844;7.978;2023-04-25T01:58:39;98190.25;;;-0.01;99.00
77877;BME280;67251;50.844;7.978;2023-04-25T02:01:05;98197.84;;;0.03;99.03
77877;BME280;67251;50.844;7.978;2023-04-25T02:03:31;98191.53;;;0.13;99.34
77877;BME280;67251;50.844;7.978;2023-04-25T02:05:57;98194.16;;;0.31;99.43
77877;BME280;67251;50.844;7.978;2023-04-25T02:08:22;98203.00;;;0.48;99.56
77877;BME280;67251;50.844;7.978;2023-04-25T02:10:48;98203.81;;;0.66;99.80
77877;BME280;67251;50.844;7.978;2023-04-25T02:13:13;98201.19;;;0.74;99.96
77877;BME280;67251;50.844;7.978;2023-04-25T02:15:39;98206.00;;;0.79;100.00
77877;BME280;67251;50.844;7.978;2023-04-25T02:18:04;98199.97;;;0.87;100.00
77877;BME280;67251;50.844;7.978;2023-04-25T02:20:31;98202.66;;;0.95;100.00
77877;BME280;67251;50.844;7.978;2023-04-25T02:22:57;98198.75;;;0.99;100.00
77877;BME280;67251;50.844;7.978;2023-04-25T02:25:22;98195.47;;;1.05;100.00
77877;BME280;67251;50.844;7.978;2023-04-25T02:27:48;98193.72;;;1.14;100.00
77877;BME280;67251;50.844;7.978;2023-04-25T02:30:14;98195.69;;;1.20;100.00
77877;BME280;67251;50.844;7.978;2023-04-25T02:32:40;98193.72;;;1.22;100.00
77877;BME280;67251;50.844;7.978;2023-04-25T02:35:06;98197.03;;;1.24;100.00
77877;BME280;67251;50.844;7.978;2023-04-25T02:37:34;98188.97;;;1.25;100.00
77877;BME280;67251;50.844;7.978;2023-04-25T02:39:59;98195.75;;;1.28;100.00
77877;BME280;67251;50.844;7.978;2023-04-25T02:42:26;98191.44;;;1.27;100.00
77877;BME280;67251;50.844;7.978;2023-04-25T02:44:51;98181.88;;;1.26;99.98
77877;BME280;67251;50.844;7.978;2023-04-25T02:47:17;98180.06;;;1.26;99.99
77877;BME280;67251;50.844;7.978;2023-04-25T02:49:45;98180.91;;;1.27;100.00
77877;BME280;67251;50.844;7.978;2023-04-25T02:52:11;98187.50;;;1.31;100.00
77877;BME280;67251;50.844;7.978;2023-04-25T02:54:38;98186.53;;;1.32;100.00
77877;BME280;67251;50.844;7.978;2023-04-25T02:57:03;98189.19;;;1.32;99.94
77877;BME280;67251;50.844;7.978;2023-04-25T02:59:29;98183.06;;;1.32;100.00
77877;BME280;67251;50.844;7.978;2023-04-25T03:01:54;98188.31;;;1.32;99.86
77877;BME280;67251;50.844;7.978;2023-04-25T03:04:20;98185.84;;;1.30;99.95
77877;BME280;67251;50.844;7.978;2023-04-25T03:06:51;98184.38;;;1.27;100.00
77877;BME280;67251;50.844;7.978;2023-04-25T03:09:18;98189.78;;;1.26;99.73
77877;BME280;67251;50.844;7.978;2023-04-25T03:11:44;98190.13;;;1.23;99.54
77877;BME280;67251;50.844;7.978;2023-04-25T03:14:10;98185.97;;;1.20;99.64
77877;BME280;67251;50.844;7.978;2023-04-25T03:16:36;98186.47;;;1.16;99.63
77877;BME280;67251;50.844;7.978;2023-04-25T03:19:02;98185.47;;;1.17;99.65
77877;BME280;67251;50.844;7.978;2023-04-25T03:21:28;98185.59;;;1.07;99.50
77877;BME280;67251;50.844;7.978;2023-04-25T03:23:53;98187.31;;;0.90;99.35
77877;BME280;67251;50.844;7.978;2023-04-25T03:26:18;98184.81;;;0.81;99.29
77877;BME280;67251;50.844;7.978;2023-04-25T03:28:45;98180.75;;;0.68;99.32
77877;BME280;67251;50.844;7.978;2023-04-25T03:31:11;98178.44;;;0.65;99.42
77877;BME280;67251;50.844;7.978;2023-04-25T03:33:38;98173.75;;;0.77;99.49
77877;BME280;67251;50.844;7.978;2023-04-25T03:36:03;98177.00;;;0.71;99.39
77877;BME280;67251;50.844;7.978;2023-04-25T03:38:29;98176.63;;;0.66;99.52
77877;BME280;67251;50.844;7.978;2023-04-25T03:40:55;98175.53;;;0.50;99.33
77877;BME280;67251;50.844;7.978;2023-04-25T03:43:21;98176.00;;;0.46;99.40
77877;BME280;67251;50.844;7.978;2023-04-25T03:45:47;98176.47;;;0.41;99.39
77877;BME280;67251;50.844;7.978;2023-04-25T03:48:12;98177.38;;;0.32;99.35
77877;BME280;67251;50.844;7.978;2023-04-25T03:50:38;98184.16;;;0.17;99.36
77877;BME280;67251;50.844;7.978;2023-04-25T03:53:03;98179.72;;;-0.01;99.12
77877;BME280;67251;50.844;7.978;2023-04-25T03:55:28;98182.59;;;-0.12;99.21
77877;BME280;67251;50.844;7.978;2023-04-25T03:57:54;98188.97;;;-0.14;99.15
77877;BME280;67251;50.844;7.978;2023-04-25T04:00:20;98185.88;;;-0.10;99.31
77877;BME280;67251;50.844;7.978;2023-04-25T04:02:46;98183.72;;;0.04;99.49
77877;BME280;67251;50.844;7.978;2023-04-25T04:05:11;98180.88;;;-0.03;99.45
77877;BME280;67251;50.844;7.978;2023-04-25T04:07:37;98182.06;;;0.03;99.90
77877;BME280;67251;50.844;7.978;2023-04-25T04:10:09;98188.97;;;0.04;99.84
77877;BME280;67251;50.844;7.978;2023-04-25T04:12:35;98188.69;;;-0.11;99.75
77877;BME280;67251;50.844;7.978;2023-04-25T04:15:02;98185.47;;;-0.23;99.57
77877;BME280;67251;50.844;7.978;2023-04-25T04:17:29;98196.25;;;-0.26;99.59
77877;BME280;67251;50.844;7.978;2023-04-25T04:19:55;98194.53;;;-0.17;99.79
77877;BME280;67251;50.844;7.978;2023-04-25T04:22:22;98186.75;;;-0.09;99.73
77877;BME280;67251;50.844;7.978;2023-04-25T04:24:48;98185.53;;;0.03;99.81
77877;BME280;67251;50.844;7.978;2023-04-25T04:27:15;98189.44;;;0.17;100.00
77877;BME280;67251;50.844;7.978;2023-04-25T04:29:42;98181.09;;;0.21;100.00
77877;BME280;67251;50.844;7.978;2023-04-25T04:32:08;98194.16;;;0.13;100.00
77877;BME280;67251;50.844;7.978;2023-04-25T04:34:34;98194.41;;;0.02;100.00
77877;BME280;67251;50.844;7.978;2023-04-25T04:37:00;98195.06;;;0.22;100.00
77877;BME280;67251;50.844;7.978;2023-04-25T04:39:25;98199.78;;;0.18;100.00
77877;BME280;67251;50.844;7.978;2023-04-25T04:41:51;98189.72;;;0.14;100.00
77877;BME280;67251;50.844;7.978;2023-04-25T04:44:16;98198.13;;;0.17;100.00
77877;BME280;67251;50.844;7.978;2023-04-25T04:46:42;98188.97;;;0.21;100.00
77877;BME280;67251;50.844;7.978;2023-04-25T04:49:11;98191.97;;;0.27;100.00
77877;BME280;67251;50.844;7.978;2023-04-25T04:51:37;98197.31;;;0.35;100.00
77877;BME280;67251;50.844;7.978;2023-04-25T04:54:03;98197.69;;;0.40;100.00
77877;BME280;67251;50.844;7.978;2023-04-25T04:56:30;98204.03;;;0.55;100.00
77877;BME280;67251;50.844;7.978;2023-04-25T04:58:58;98202.72;;;0.77;100.00
77877;BME280;67251;50.844;7.978;2023-04-25T05:01:23;98207.13;;;1.02;100.00
77877;BME280;67251;50.844;7.978;2023-04-25T05:03:49;98215.44;;;1.16;100.00
77877;BME280;67251;50.844;7.978;2023-04-25T05:06:16;98213.50;;;1.26;100.00
77877;BME280;67251;50.844;7.978;2023-04-25T05:08:42;98217.38;;;1.40;100.00
77877;BME280;67251;50.844;7.978;2023-04-25T05:11:07;98221.16;;;1.45;100.00
77877;BME280;67251;50.844;7.978;2023-04-25T05:13:32;98222.53;;;1.58;100.00
77877;BME280;67251;50.844;7.978;2023-04-25T05:15:58;98241.03;;;1.74;100.00
77877;BME280;67251;50.844;7.978;2023-04-25T05:18:23;98227.06;;;1.82;100.00
77877;BME280;67251;50.844;7.978;2023-04-25T05:20:48;98232.84;;;1.85;100.00
77877;BME280;67251;50.844;7.978;2023-04-25T05:23:14;98244.09;;;1.95;99.77
77877;BME280;67251;50.844;7.978;2023-04-25T05:25:40;98252.00;;;1.95;99.04
77877;BME280;67251;50.844;7.978;2023-04-25T05:28:05;98254.00;;;2.01;98.49
77877;BME280;67251;50.844;7.978;2023-04-25T05:30:31;98253.84;;;2.03;97.70
77877;BME280;67251;50.844;7.978;2023-04-25T05:32:56;98256.97;;;2.07;96.75
77877;BME280;67251;50.844;7.978;2023-04-25T05:35:22;98259.31;;;2.18;96.81
77877;BME280;67251;50.844;7.978;2023-04-25T05:37:47;98256.03;;;2.24;95.43
77877;BME280;67251;50.844;7.978;2023-04-25T05:40:13;98253.06;;;2.27;94.64
77877;BME280;67251;50.844;7.978;2023-04-25T05:42:38;98261.81;;;2.36;93.75
77877;BME280;67251;50.844;7.978;2023-04-25T05:45:04;98266.13;;;2.45;92.73
77877;BME280;67251;50.844;7.978;2023-04-25T05:47:29;98266.63;;;2.56;92.12
77877;BME280;67251;50.844;7.978;2023-04-25T05:49:55;98270.41;;;2.70;91.82
77877;BME280;67251;50.844;7.978;2023-04-25T05:52:20;98271.88;;;2.81;90.62
77877;BME280;67251;50.844;7.978;2023-04-25T05:54:46;98283.94;;;3.00;90.53
77877;BME280;67251;50.844;7.978;2023-04-25T05:57:25;98279.97;;;3.12;89.55
77877;BME280;67251;50.844;7.978;2023-04-25T05:59:51;98272.84;;;3.21;88.71
77877;BME280;67251;50.844;7.978;2023-04-25T06:02:19;98279.91;;;3.28;88.02
77877;BME280;67251;50.844;7.978;2023-04-25T06:04:44;98284.69;;;3.41;88.12
77877;BME280;67251;50.844;7.978;2023-04-25T06:07:09;98284.38;;;3.44;87.65
77877;BME280;67251;50.844;7.978;2023-04-25T06:09:35;98291.94;;;3.47;87.24
77877;BME280;67251;50.844;7.978;2023-04-25T06:12:01;98290.91;;;3.56;87.51
77877;BME280;67251;50.844;7.978;2023-04-25T06:14:27;98290.91;;;3.65;86.72
77877;BME280;67251;50.844;7.978;2023-04-25T06:16:52;98293.34;;;3.74;85.89
77877;BME280;67251;50.844;7.978;2023-04-25T06:19:18;98296.47;;;3.86;85.84
77877;BME280;67251;50.844;7.978;2023-04-25T06:21:44;98298.19;;;4.02;85.07
77877;BME280;67251;50.844;7.978;2023-04-25T06:24:09;98302.13;;;4.14;84.64
77877;BME280;67251;50.844;7.978;2023-04-25T06:26:35;98298.50;;;4.38;84.25
77877;BME280;67251;50.844;7.978;2023-04-25T06:29:00;98298.09;;;4.95;82.95
77877;BME280;67251;50.844;7.978;2023-04-25T06:31:25;98292.56;;;5.49;80.39
77877;BME280;67251;50.844;7.978;2023-04-25T06:33:51;98297.78;;;6.02;78.33
77877;BME280;67251;50.844;7.978;2023-04-25T06:36:20;98284.22;;;6.48;75.65
77877;BME280;67251;50.844;7.978;2023-04-25T06:38:50;98289.75;;;6.89;73.16
77877;BME280;67251;50.844;7.978;2023-04-25T06:41:15;98288.50;;;7.13;73.51
77877;BME280;67251;50.844;7.978;2023-04-25T06:43:41;98280.19;;;7.23;73.80
77877;BME280;67251;50.844;7.978;2023-04-25T06:46:06;98294.03;;;7.39;73.25
77877;BME280;67251;50.844;7.978;2023-04-25T06:48:31;98301.00;;;7.12;72.15
77877;BME280;67251;50.844;7.978;2023-04-25T06:50:57;98299.13;;;6.85;73.62
77877;BME280;67251;50.844;7.978;2023-04-25T06:53:22;98305.38;;;6.56;75.01
77877;BME280;67251;50.844;7.978;2023-04-25T06:55:47;98314.59;;;6.38;75.90
77877;BME280;67251;50.844;7.978;2023-04-25T06:58:13;98313.34;;;6.20;76.34
77877;BME280;67251;50.844;7.978;2023-04-25T07:00:38;98316.09;;;6.11;76.65
77877;BME280;67251;50.844;7.978;2023-04-25T07:03:04;98314.38;;;6.04;76.57
77877;BME280;67251;50.844;7.978;2023-04-25T07:05:29;98320.03;;;6.15;76.03
77877;BME280;67251;50.844;7.978;2023-04-25T07:07:54;98313.53;;;6.18;76.48
77877;BME280;67251;50.844;7.978;2023-04-25T07:10:20;98316.66;;;6.07;77.15
77877;BME280;67251;50.844;7.978;2023-04-25T07:12:46;98316.09;;;5.82;77.38
77877;BME280;67251;50.844;7.978;2023-04-25T07:15:11;98318.75;;;5.52;78.19
77877;BME280;67251;50.844;7.978;2023-04-25T07:17:37;98326.50;;;5.24;78.03
77877;BME280;67251;50.844;7.978;2023-04-25T07:20:04;98334.47;;;5.01;78.26
77877;BME280;67251;50.844;7.978;2023-04-25T07:22:31;98347.25;;;4.75;80.08
77877;BME280;67251;50.844;7.978;2023-04-25T07:24:56;98360.06;;;4.40;78.08
77877;BME280;67251;50.844;7.978;2023-04-25T07:27:22;98353.75;;;4.10;77.08
77877;BME280;67251;50.844;7.978;2023-04-25T07:29:47;98357.47;;;3.93;78.63
77877;BME280;67251;50.844;7.978;2023-04-25T07:32:13;98348.41;;;3.79;78.06
77877;BME280;67251;50.844;7.978;2023-04-25T07:34:39;98357.97;;;3.80;78.01
77877;BME280;67251;50.844;7.978;2023-04-25T07:37:04;98349.69;;;3.91;77.94
77877;BME280;67251;50.844;7.978;2023-04-25T07:39:30;98357.53;;;4.16;76.87
77877;BME280;67251;50.844;7.978;2023-04-25T07:41:56;98354.72;;;4.48;75.37
77877;BME280;67251;50.844;7.978;2023-04-25T07:44:23;98353.91;;;5.17;73.69
77877;BME280;67251;50.844;7.978;2023-04-25T07:46:49;98350.31;;;5.47;71.80
77877;BME280;67251;50.844;7.978;2023-04-25T07:49:14;98352.31;;;5.45;71.70
77877;BME280;67251;50.844;7.978;2023-04-25T07:51:40;98355.94;;;5.97;69.43
77877;BME280;67251;50.844;7.978;2023-04-25T07:54:06;98361.41;;;6.54;69.06
77877;BME280;67251;50.844;7.978;2023-04-25T07:56:32;98367.38;;;7.21;66.44
77877;BME280;67251;50.844;7.978;2023-04-25T07:58:57;98365.75;;;6.62;66.00
77877;BME280;67251;50.844;7.978;2023-04-25T08:01:23;98356.53;;;7.72;64.15
77877;BME280;67251;50.844;7.978;2023-04-25T08:03:48;98360.66;;;8.63;61.80
77877;BME280;67251;50.844;7.978;2023-04-25T08:06:14;98359.13;;;9.15;57.93
77877;BME280;67251;50.844;7.978;2023-04-25T08:08:40;98359.72;;;9.77;57.73
77877;BME280;67251;50.844;7.978;2023-04-25T08:11:05;98360.28;;;10.12;54.62
77877;BME280;67251;50.844;7.978;2023-04-25T08:13:31;98346.47;;;12.42;48.33
77877;BME280;67251;50.844;7.978;2023-04-25T08:15:56;98344.72;;;14.72;44.16
77877;BME280;67251;50.844;7.978;2023-04-25T08:18:21;98348.69;;;14.41;43.93
77877;BME280;67251;50.844;7.978;2023-04-25T08:20:47;98359.13;;;13.43;43.81
77877;BME280;67251;50.844;7.978;2023-04-25T08:23:12;98365.06;;;11.82;46.79
77877;BME280;67251;50.844;7.978;2023-04-25T08:25:38;98376.00;;;11.55;50.92
77877;BME280;67251;50.844;7.978;2023-04-25T08:28:03;98382.16;;;11.81;49.72
77877;BME280;67251;50.844;7.978;2023-04-25T08:30:29;98381.34;;;12.05;47.50
77877;BME280;67251;50.844;7.978;2023-04-25T08:32:55;98389.94;;;11.39;47.43
77877;BME280;67251;50.844;7.978;2023-04-25T08:35:20;98391.31;;;10.33;49.55
77877;BME280;67251;50.844;7.978;2023-04-25T08:37:46;98394.66;;;10.02;51.02
77877;BME280;67251;50.844;7.978;2023-04-25T08:40:14;98399.22;;;9.55;52.22
77877;BME280;67251;50.844;7.978;2023-04-25T08:42:41;98402.69;;;9.76;52.83
77877;BME280;67251;50.844;7.978;2023-04-25T08:45:07;98401.28;;;9.46;52.98
77877;BME280;67251;50.844;7.978;2023-04-25T08:47:33;98413.38;;;9.62;53.26
77877;BME280;67251;50.844;7.978;2023-04-25T08:50:00;98415.97;;;8.89;55.42
77877;BME280;67251;50.844;7.978;2023-04-25T08:52:29;98423.06;;;8.34;54.17
77877;BME280;67251;50.844;7.978;2023-04-25T08:54:57;98419.06;;;8.10;54.69
77877;BME280;67251;50.844;7.978;2023-04-25T08:57:23;98429.19;;;7.93;55.84
77877;BME280;67251;50.844;7.978;2023-04-25T08:59:49;98434.59;;;7.79;54.63
77877;BME280;67251;50.844;7.978;2023-04-25T09:02:15;98440.72;;;7.73;53.15
77877;BME280;67251;50.844;7.978;2023-04-25T09:04:44;98429.75;;;8.17;55.55
77877;BME280;67251;50.844;7.978;2023-04-25T09:07:09;98435.72;;;8.60;53.92
77877;BME280;67251;50.844;7.978;2023-04-25T09:09:35;98430.38;;;9.21;49.72
77877;BME280;67251;50.844;7.978;2023-04-25T09:12:01;98432.06;;;9.82;50.17
77877;BME280;67251;50.844;7.978;2023-04-25T09:14:27;98427.63;;;11.44;46.58
77877;BME280;67251;50.844;7.978;2023-04-25T09:19:31;98421.84;;;11.97;41.09
77877;BME280;67251;50.844;7.978;2023-04-25T09:21:59;98428.03;;;11.72;43.13
77877;BME280;67251;50.844;7.978;2023-04-25T09:24:35;98432.16;;;11.05;41.55
77877;BME280;67251;50.844;7.978;2023-04-25T09:27:06;98440.25;;;10.20;44.56
77877;BME280;67251;50.844;7.978;2023-04-25T09:29:36;98457.16;;;9.68;45.83
77877;BME280;67251;50.844;7.978;2023-04-25T09:32:22;98451.03;;;8.93;47.92
77877;BME280;67251;50.844;7.978;2023-04-25T09:34:50;98452.59;;;8.67;50.31
77877;BME280;67251;50.844;7.978;2023-04-25T09:37:29;98459.72;;;8.60;51.64
77877;BME280;67251;50.844;7.978;2023-04-25T09:39:59;98467.44;;;8.42;50.21
77877;BME280;67251;50.844;7.978;2023-04-25T09:42:28;98472.47;;;8.02;49.52
77877;BME280;67251;50.844;7.978;2023-04-25T09:44:56;98477.00;;;7.80;52.15
77877;BME280;67251;50.844;7.978;2023-04-25T09:47:24;98479.16;;;7.63;52.41
77877;BME280;67251;50.844;7.978;2023-04-25T09:49:51;98481.94;;;7.55;52.74
77877;BME280;67251;50.844;7.978;2023-04-25T09:52:18;98489.91;;;7.55;53.75
77877;BME280;67251;50.844;7.978;2023-04-25T09:54:45;98485.34;;;7.49;53.05
77877;BME280;67251;50.844;7.978;2023-04-25T09:57:21;98489.41;;;7.45;51.67
77877;BME280;67251;50.844;7.978;2023-04-25T09:59:54;98497.31;;;7.60;52.86
77877;BME280;67251;50.844;7.978;2023-04-25T10:02:22;98502.78;;;7.52;53.20
77877;BME280;67251;50.844;7.978;2023-04-25T10:04:52;98498.03;;;7.47;53.04
77877;BME280;67251;50.844;7.978;2023-04-25T10:07:20;98504.47;;;7.38;54.57
77877;BME280;67251;50.844;7.978;2023-04-25T10:09:48;98511.50;;;7.24;55.12
77877;BME280;67251;50.844;7.978;2023-04-25T10:12:17;98511.59;;;7.31;55.30
77877;BME280;67251;50.844;7.978;2023-04-25T10:14:44;98501.66;;;7.39;54.20
77877;BME280;67251;50.844;7.978;2023-04-25T10:17:10;98512.72;;;7.43;53.24
77877;BME280;67251;50.844;7.978;2023-04-25T10:19:39;98506.91;;;7.54;53.37
77877;BME280;67251;50.844;7.978;2023-04-25T10:22:13;98510.81;;;7.80;53.46
77877;BME280;67251;50.844;7.978;2023-04-25T10:24:39;98511.06;;;8.06;52.48
77877;BME280;67251;50.844;7.978;2023-04-25T10:27:06;98498.53;;;8.35;50.58
77877;BME280;67251;50.844;7.978;2023-04-25T10:29:31;98501.56;;;9.01;51.25
77877;BME280;67251;50.844;7.978;2023-04-25T10:31:57;98496.03;;;9.84;49.07
77877;BME280;67251;50.844;7.978;2023-04-25T10:34:43;98490.47;;;10.25;46.88
77877;BME280;67251;50.844;7.978;2023-04-25T10:37:12;98487.09;;;10.63;45.85
77877;BME280;67251;50.844;7.978;2023-04-25T10:39:42;98499.91;;;10.47;46.91
77877;BME280;67251;50.844;7.978;2023-04-25T10:42:08;98483.78;;;10.74;45.14
77877;BME280;67251;50.844;7.978;2023-04-25T10:44:33;98479.16;;;10.94;45.07
77877;BME280;67251;50.844;7.978;2023-04-25T10:47:01;98491.41;;;10.70;46.18
77877;BME280;67251;50.844;7.978;2023-04-25T10:49:41;98493.53;;;10.42;46.15
77877;BME280;67251;50.844;7.978;2023-04-25T10:52:15;98488.91;;;10.75;46.92
77877;BME280;67251;50.844;7.978;2023-04-25T10:54:54;98489.84;;;11.77;43.58
77877;BME280;67251;50.844;7.978;2023-04-25T11:00:18;98496.78;;;11.54;44.27
77877;BME280;67251;50.844;7.978;2023-04-25T11:02:51;98495.88;;;11.35;44.85
77877;BME280;67251;50.844;7.978;2023-04-25T11:05:33;98499.25;;;11.17;46.00
77877;BME280;67251;50.844;7.978;2023-04-25T11:07:58;98497.50;;;10.97;44.90
77877;BME280;67251;50.844;7.978;2023-04-25T11:10:28;98509.81;;;10.40;47.21
77877;BME280;67251;50.844;7.978;2023-04-25T11:12:54;98514.72;;;9.90;46.67
77877;BME280;67251;50.844;7.978;2023-04-25T11:15:20;98521.84;;;9.37;48.55
77877;BME280;67251;50.844;7.978;2023-04-25T11:17:45;98527.81;;;8.91;50.46
77877;BME280;67251;50.844;7.978;2023-04-25T11:20:12;98537.63;;;8.49;51.37
77877;BME280;67251;50.844;7.978;2023-04-25T11:22:40;98533.22;;;8.69;51.74
77877;BME280;67251;50.844;7.978;2023-04-25T11:25:09;98530.13;;;9.07;52.14
77877;BME280;67251;50.844;7.978;2023-04-25T11:27:58;98520.16;;;9.29;50.49
77877;BME280;67251;50.844;7.978;2023-04-25T11:30:26;98521.06;;;9.63;51.04
77877;BME280;67251;50.844;7.978;2023-04-25T11:32:52;98522.53;;;10.52;49.71
77877;BME280;67251;50.844;7.978;2023-04-25T11:35:19;98518.25;;;11.47;48.78
77877;BME280;67251;50.844;7.978;2023-04-25T11:37:45;98514.09;;;11.58;44.18
77877;BME280;67251;50.844;7.978;2023-04-25T11:40:11;98515.25;;;11.68;45.20
77877;BME280;67251;50.844;7.978;2023-04-25T11:42:43;98510.19;;;11.15;43.91
77877;BME280;67251;50.844;7.978;2023-04-25T11:45:09;98522.72;;;10.63;46.78
77877;BME280;67251;50.844;7.978;2023-04-25T11:47:36;98526.03;;;9.99;48.01
77877;BME280;67251;50.844;7.978;2023-04-25T11:50:04;98522.91;;;9.56;49.32
77877;BME280;67251;50.844;7.978;2023-04-25T11:52:41;98528.75;;;9.25;48.71
77877;BME280;67251;50.844;7.978;2023-04-25T11:55:08;98530.13;;;9.07;47.18
77877;BME280;67251;50.844;7.978;2023-04-25T11:57:34;98526.78;;;8.92;47.94
77877;BME280;67251;50.844;7.978;2023-04-25T12:00:26;98537.91;;;8.95;48.29
77877;BME280;67251;50.844;7.978;2023-04-25T12:02:53;98543.31;;;9.15;45.43
77877;BME280;67251;50.844;7.978;2023-04-25T12:05:20;98532.41;;;9.10;42.73
77877;BME280;67251;50.844;7.978;2023-04-25T12:07:46;98529.66;;;9.52;45.44
77877;BME280;67251;50.844;7.978;2023-04-25T12:10:13;98529.31;;;10.14;45.75
77877;BME280;67251;50.844;7.978;2023-04-25T12:12:44;98526.84;;;10.53;41.17
77877;BME280;67251;50.844;7.978;2023-04-25T12:15:13;98518.22;;;10.37;41.58
77877;BME280;67251;50.844;7.978;2023-04-25T12:17:41;98523.13;;;10.20;42.04
77877;BME280;67251;50.844;7.978;2023-04-25T12:20:13;98523.34;;;10.06;42.08
77877;BME280;67251;50.844;7.978;2023-04-25T12:22:44;98540.03;;;10.34;40.01
77877;BME280;67251;50.844;7.978;2023-04-25T12:25:20;98527.84;;;10.65;41.90
77877;BME280;67251;50.844;7.978;2023-04-25T12:28:16;98534.25;;;11.22;40.57
77877;BME280;67251;50.844;7.978;2023-04-25T12:31:01;98529.66;;;11.36;40.74
77877;BME280;67251;50.844;7.978;2023-04-25T12:33:34;98525.47;;;11.46;39.59
77877;BME280;67251;50.844;7.978;2023-04-25T12:36:01;98525.81;;;11.57;39.22
77877;BME280;67251;50.844;7.978;2023-04-25T12:38:38;98527.50;;;11.58;39.63
77877;BME280;67251;50.844;7.978;2023-04-25T12:41:04;98530.41;;;11.49;39.68
77877;BME280;67251;50.844;7.978;2023-04-25T12:43:29;98544.69;;;10.92;41.35
77877;BME280;67251;50.844;7.978;2023-04-25T12:45:56;98545.38;;;10.34;40.06
77877;BME280;67251;50.844;7.978;2023-04-25T12:48:22;98559.75;;;10.13;39.84
77877;BME280;67251;50.844;7.978;2023-04-25T12:50:48;98570.22;;;9.95;37.48
77877;BME280;67251;50.844;7.978;2023-04-25T12:53:18;98561.53;;;9.60;38.20
77877;BME280;67251;50.844;7.978;2023-04-25T12:55:44;98566.91;;;9.86;38.79
77877;BME280;67251;50.844;7.978;2023-04-25T12:58:17;98557.50;;;10.04;38.19
77877;BME280;67251;50.844;7.978;2023-04-25T13:00:43;98558.72;;;10.01;39.13
77877;BME280;67251;50.844;7.978;2023-04-25T13:03:09;98548.00;;;9.75;36.47
77877;BME280;67251;50.844;7.978;2023-04-25T13:05:36;98552.97;;;9.84;40.39
77877;BME280;67251;50.844;7.978;2023-04-25T13:08:01;98562.41;;;9.87;39.03
77877;BME280;67251;50.844;7.978;2023-04-25T13:10:27;98553.63;;;10.46;37.21
77877;BME280;67251;50.844;7.978;2023-04-25T13:12:52;98557.44;;;10.90;37.94
77877;BME280;67251;50.844;7.978;2023-04-25T13:15:17;98555.66;;;10.57;37.45